Предлагаем Вашему вниманию английскую версию страницы: AUTOTAF.ME 35633 - aviation weather forecast Shalkar

AUTOTAF 35633 - авиапрогноз Шалкар

Сегодня рассвет 02:06 UTC, восход солнца 02:37 UTC,
местный полдень 07:45 UTC, заход солнца 12:52 UTC,
наступление темноты 13:24 UTC.

Краткий прогноз 35633 на 9 часов

AUTOTAF.ME 35633 260800Z 2609/2618 30015G20MPS 9999 BKN025     
  FM261500 30011G16MPS CAVOK 
  BECMG 2616/2618 SCT026

Детальный прогноз 35633 на 24 часа

AUTOTAF.ME 35633 260800Z 2609/2709 30015G20MPS 9999 BKN025 TX12/2609Z TN01/2703Z   
  FM261500 30011G16MPS 9999 SKC 
  BECMG 2616/2618 SCT026      
  BECMG 2707/2709 SCT231

Подробный табличный прогноз

Время (UTC) miniAUTOTAF на 3 ч WX FZLVL
M AGL
ICE TURB Т
(°С)
Тd
(°С)
f(%) QNH
(гПа)
WIND/T
06 28014G19MPS 9999 -RA BKN018 -RA 1200 FBL FL50/FL70 MOD SFC/FL40 12 4 58 1006 ...
09 30015G20MPS 9999 BKN025 1350 FBL FL70/FL80 MOD SFC/FL40 12 4 57 1008 ...
12 30013G18MPS 9999 BKN035 1200 FBL FL50/FL60 MOD SFC/FL50 12 1 46 1010 ...
15 30011G16MPS 9999 SKC 810 MOD SFC/FL40 8 -4 44 1012 ...
18 30011G16MPS 9999 SCT026 540 MOD SFC/FL40 5 -5 50 1014 ...
21 32012G17MPS 9999 BKN026 360 MOD FL40/FL50 MOD SFC/FL40 3 -5 56 1015 ...
27.10.2020
00 31011G17MPS 9999 BKN026 270 FBL FL40/FL50 MOD SFC/FL30 2 -6 56 1016 ...
03 30011G17MPS 9999 BKN019 140 MOD FL40/FL50 MOD SFC/FL30 1 -6 61 1017 ...
06 32013G18MPS 9999 BKN027 210 MOD FL40/FL50 MOD SFC/FL30 3 -7 48 1018 ...
09 32012G17MPS 9999 SCT231 360 MOD SFC/FL40 5 -6 45 1018 ...
12 32012G17MPS 9999 BKN028 480 MOD FL40/FL50 MOD SFC/FL40 5 -5 48 1020 ...
15 33010G15MPS 9999 SCT028 420 MOD FL40/FL50 MOD SFC/FL30 3 -5 57 1023 ...
18 34006G12MPS 9999 BKN029 420 MOD SFC/FL20 3 -4 61 1025 ...
21 35005G11MPS 9999 BKN022 360 MOD SFC/FL20 2 -4 65 1027 ...
28.10.2020
00 36004MPS 9999 BKN015 120 MOD FL20/FL30 MOD SFC/FL20 0 -4 71 1030 ...
03 01004MPS 9999 SCT016 SFC MOD FL20/FL30 -1 -5 75 1032 ...


Широта 47.8°, долгота 59.7°, высота 179 м абс.
Средняя высота рельефа местности 187 м абс.
Прогнозы обновляются четыре раза в сутки: в 02, 08, 14, 20 ч всемирного времени.


Выбрать прогноз по другой модели Шалкар
Онлайн-сводка гроз по Шалкар (для РФ и ближнего зарубежья)
Карта фактических гроз в окрестностях Шалкар
Динамические прогностические карты (ventusky.com)
Прогностическая карта высоты нижней границы облаков по Шалкар (windy.com)
Выбрать другой город

Прогноз предназначен для личного научно-познавательного использования частными лицами
и не предназначен для принятия важных решений и выполнения реальных полётов воздушных судов

При копировании или ином использовании любых материалов данного сайта ссылка на © meteocenter.asia обязательна.

0.99/1.4